Time;durP1;ratioP1;P1;durP2;ratioP2;P2;SDS_P1;SDS_P2;PMS_P1;PMS_P2;Temp;Humidity;BMP_temperature;BMP_pressure;BME280_temperature;BME280_humidity;BME280_pressure;Samples;Min_cycle;Max_cycle;Signal;HPM_P1;HPM_P2
2022/03/14 00:00:44;;;;;;;8.50;6.67;;;;;;;4.63;28.93;100110.78;4903778;29;20245;-76
2022/03/14 00:03:12;;;;;;;9.30;6.53;;;;;;;4.49;29.18;100110.63;4904008;29;20760;-76
2022/03/14 00:05:39;;;;;;;8.17;6.50;;;;;;;4.54;29.14;100108.31;4905255;29;20599;-77
2022/03/14 00:08:06;;;;;;;8.70;6.70;;;;;;;4.59;28.99;100108.63;4904161;29;20302;-76
2022/03/14 00:10:34;;;;;;;8.87;6.70;;;;;;;4.58;29.00;100110.44;4906223;29;20246;-76
2022/03/14 00:13:02;;;;;;;7.57;6.47;;;;;;;4.60;29.27;100115.59;4901712;29;20295;-76
2022/03/14 00:15:32;;;;;;;8.23;6.57;;;;;;;4.38;29.35;100115.31;4906496;29;20665;-77
2022/03/14 00:18:01;;;;;;;7.60;6.17;;;;;;;4.60;29.06;100115.59;4902767;29;20230;-77
2022/03/14 00:20:28;;;;;;;8.53;6.37;;;;;;;4.56;29.17;100107.16;4905300;29;20765;-75
2022/03/14 00:22:58;;;;;;;7.60;6.33;;;;;;;4.46;29.30;100108.31;4899727;29;20671;-76
2022/03/14 00:25:26;;;;;;;8.40;6.43;;;;;;;4.32;29.36;100108.03;4901375;29;20242;-77
2022/03/14 00:27:54;;;;;;;7.93;6.00;;;;;;;4.38;29.21;100109.19;4902397;29;20234;-77
2022/03/14 00:30:22;;;;;;;8.67;6.50;;;;;;;4.33;29.24;100112.34;4903829;29;20560;-77
2022/03/14 00:32:49;;;;;;;8.63;6.97;;;;;;;4.35;29.23;100112.16;4901978;29;20234;-77
2022/03/14 00:35:16;;;;;;;7.23;6.37;;;;;;;4.38;29.36;100112.66;4901096;29;20737;-77
2022/03/14 00:37:43;;;;;;;7.50;6.53;;;;;;;4.48;29.32;100106.34;4904697;29;20241;-77
2022/03/14 00:40:11;;;;;;;7.30;6.30;;;;;;;4.25;29.69;100109.66;4902647;29;20270;-77
2022/03/14 00:42:40;;;;;;;6.07;5.47;;;;;;;4.18;29.96;100100.75;4901931;29;20714;-77
2022/03/14 00:45:07;;;;;;;7.67;6.10;;;;;;;4.14;30.14;100106.53;4901301;29;20308;-76
2022/03/14 00:47:34;;;;;;;7.80;6.20;;;;;;;4.16;30.28;100113.31;4906269;29;20253;-79
2022/03/14 00:50:01;;;;;;;8.37;6.97;;;;;;;4.11;30.28;100120.13;4901601;29;20701;-75
2022/03/14 00:52:28;;;;;;;9.20;6.57;;;;;;;4.05;30.54;100118.97;4903063;29;20693;-77
2022/03/14 00:54:55;;;;;;;8.67;6.87;;;;;;;4.03;29.97;100122.78;4903515;29;20246;-77
2022/03/14 00:57:22;;;;;;;9.57;6.27;;;;;;;4.07;30.33;100110.84;4901804;29;20234;-78
2022/03/14 00:59:49;;;;;;;7.30;5.90;;;;;;;3.96;30.25;100120.81;4904205;29;20241;-77
2022/03/14 01:02:15;;;;;;;8.40;6.43;;;;;;;3.87;31.12;100110.38;4903151;29;20298;-77
2022/03/14 01:04:42;;;;;;;8.53;6.60;;;;;;;3.75;31.33;100114.31;4901367;29;20309;-80
2022/03/14 01:07:09;;;;;;;7.40;6.67;;;;;;;3.83;31.19;100122.25;4900316;29;20235;-77
2022/03/14 01:09:36;;;;;;;6.93;6.10;;;;;;;3.73;31.46;100125.09;4906368;29;20277;-77
2022/03/14 01:12:03;;;;;;;8.00;6.73;;;;;;;3.79;31.44;100121.78;4902550;29;20243;-77
2022/03/14 01:14:30;;;;;;;9.23;6.67;;;;;;;3.65;32.08;100119.75;4901820;29;20242;-76
2022/03/14 01:16:57;;;;;;;7.93;6.60;;;;;;;3.50;32.20;100116.91;4899480;29;20298;-77
2022/03/14 01:19:23;;;;;;;7.07;6.33;;;;;;;3.47;32.30;100113.78;4905011;29;20234;-77
2022/03/14 01:21:50;;;;;;;10.40;6.43;;;;;;;3.57;32.39;100109.16;4905166;29;20234;-77
2022/03/14 01:24:17;;;;;;;7.87;6.53;;;;;;;3.45;32.82;100108.63;4906064;29;20242;-77
2022/03/14 01:26:44;;;;;;;9.07;6.43;;;;;;;3.50;32.92;100111.63;4912630;29;20264;-76
2022/03/14 01:29:11;;;;;;;7.33;6.30;;;;;;;3.32;33.91;100107.44;4908137;29;20238;-77
2022/03/14 01:31:38;;;;;;;7.63;6.57;;;;;;;3.36;33.99;100098.19;4911649;29;20266;-77
2022/03/14 01:34:05;;;;;;;7.97;6.23;;;;;;;3.27;34.62;100096.50;4909225;29;20250;-76
2022/03/14 01:36:32;;;;;;;8.10;6.77;;;;;;;3.22;34.84;100081.09;4912659;29;20241;-77
2022/03/14 01:39:00;;;;;;;9.50;6.43;;;;;;;3.21;34.81;100092.69;4908635;29;20249;-76
2022/03/14 01:41:28;;;;;;;8.67;6.33;;;;;;;3.07;35.10;100094.16;4906247;29;20250;-77
2022/03/14 01:43:56;;;;;;;8.30;6.20;;;;;;;2.89;35.73;100092.59;4908147;29;20254;-77
2022/03/14 01:46:23;;;;;;;7.50;6.70;;;;;;;3.02;36.05;100099.09;4906349;29;20258;-77
2022/03/14 01:48:51;;;;;;;7.97;6.03;;;;;;;3.13;35.46;100079.41;4907700;29;20325;-76
2022/03/14 01:51:24;;;;;;;8.97;6.43;;;;;;;2.99;35.71;100090.59;4906901;29;20741;-77
2022/03/14 01:53:52;;;;;;;8.43;5.83;;;;;;;3.00;35.89;100095.75;4908744;29;20253;-77
2022/03/14 01:56:19;;;;;;;7.57;6.20;;;;;;;3.06;35.51;100095.13;4906900;29;20285;-77
2022/03/14 01:58:46;;;;;;;8.10;6.27;;;;;;;2.95;35.93;100097.22;4906747;29;20273;-76
2022/03/14 02:01:14;;;;;;;8.70;6.57;;;;;;;2.84;35.78;100102.81;4902849;29;20230;-76
2022/03/14 02:03:42;;;;;;;8.10;6.37;;;;;;;2.69;35.88;100093.81;4907310;29;20248;-77
2022/03/14 02:06:10;;;;;;;8.00;6.27;;;;;;;2.65;35.54;100102.06;4901317;29;20243;-76
2022/03/14 02:08:37;;;;;;;8.37;5.90;;;;;;;2.55;36.05;100096.06;4909104;29;20253;-77
2022/03/14 02:11:04;;;;;;;8.67;6.77;;;;;;;2.41;35.98;100109.84;4906681;29;20774;-76
2022/03/14 02:13:31;;;;;;;8.30;6.53;;;;;;;2.41;36.06;100109.84;4908545;29;20245;-77
2022/03/14 02:15:57;;;;;;;8.37;6.37;;;;;;;2.38;35.80;100110.13;4904929;29;20694;-77
2022/03/14 02:18:24;;;;;;;7.93;6.20;;;;;;;2.38;35.71;100107.50;4906142;29;20235;-77
2022/03/14 02:20:51;;;;;;;7.47;6.13;;;;;;;2.31;35.95;100117.06;4906542;29;20691;-79
2022/03/14 02:23:18;;;;;;;7.03;6.03;;;;;;;2.40;35.76;100105.53;4906523;29;20248;-76
2022/03/14 02:25:47;;;;;;;8.40;6.40;;;;;;;2.32;35.63;100110.78;4909458;29;20238;-76
2022/03/14 02:28:17;;;;;;;10.37;6.70;;;;;;;2.09;36.14;100112.25;4900978;29;20247;-79
2022/03/14 02:30:43;;;;;;;8.23;6.10;;;;;;;2.01;35.66;100109.53;4903821;29;20937;-79
2022/03/14 02:33:11;;;;;;;10.70;6.70;;;;;;;2.01;35.96;100105.09;4902037;29;20749;-79
2022/03/14 02:35:41;;;;;;;9.67;6.70;;;;;;;1.98;35.47;100109.84;4908980;29;20326;-80
2022/03/14 02:38:15;;;;;;;9.00;6.60;;;;;;;1.99;36.02;100112.34;4907633;29;20694;-78
2022/03/14 02:40:46;;;;;;;7.33;6.17;;;;;;;2.04;36.07;100118.00;4905137;29;20250;-77
2022/03/14 02:43:15;;;;;;;8.23;6.40;;;;;;;1.99;35.96;100114.16;4902798;29;20243;-77
2022/03/14 02:45:46;;;;;;;8.50;5.93;;;;;;;2.03;36.34;100113.72;4908003;29;20244;-76
2022/03/14 02:48:17;;;;;;;7.90;6.17;;;;;;;1.97;36.87;100119.59;4905448;29;20701;-76
2022/03/14 02:50:48;;;;;;;8.57;6.67;;;;;;;1.76;37.20;100119.09;4907201;29;20238;-77
2022/03/14 02:53:15;;;;;;;9.43;6.73;;;;;;;1.86;36.56;100127.78;4904715;29;20707;-76
2022/03/14 02:55:43;;;;;;;11.93;6.83;;;;;;;1.80;37.34;100127.53;4906887;29;20248;-76
2022/03/14 02:58:10;;;;;;;8.20;6.63;;;;;;;1.68;37.67;100132.22;4901994;29;20234;-78
2022/03/14 03:00:37;;;;;;;8.23;6.20;;;;;;;1.59;38.13;100123.38;4899397;29;20325;-77
2022/03/14 03:03:06;;;;;;;7.13;6.13;;;;;;;1.63;38.01;100124.72;4905155;29;20234;-76
2022/03/14 03:05:35;;;;;;;9.67;6.30;;;;;;;1.64;37.82;100120.28;4907249;29;20249;-75
2022/03/14 03:08:06;;;;;;;8.90;6.43;;;;;;;1.64;37.53;100125.56;4900526;29;20235;-76
2022/03/14 03:10:34;;;;;;;7.53;6.70;;;;;;;1.54;38.04;100123.00;4906070;29;20342;-76
2022/03/14 03:13:04;;;;;;;8.67;6.30;;;;;;;1.68;38.34;100134.88;4903536;29;20236;-76
2022/03/14 03:15:31;;;;;;;7.37;6.07;;;;;;;1.72;38.43;100137.06;4908177;29;20329;-76
2022/03/14 03:17:59;;;;;;;8.00;6.20;;;;;;;1.59;38.01;100141.03;4900673;29;20239;-77
2022/03/14 03:20:26;;;;;;;6.40;5.80;;;;;;;1.57;38.98;100145.66;4902184;29;20649;-76
2022/03/14 03:22:53;;;;;;;8.13;6.87;;;;;;;1.70;39.49;100149.56;4906434;29;20328;-77
2022/03/14 03:25:20;;;;;;;9.77;6.60;;;;;;;1.65;38.69;100145.72;4904941;29;20249;-76
2022/03/14 03:27:47;;;;;;;7.70;6.13;;;;;;;1.56;37.86;100146.63;4907474;29;20320;-76
2022/03/14 03:30:14;;;;;;;7.87;6.57;;;;;;;1.58;38.42;100152.59;4903566;29;20610;-77
2022/03/14 03:32:41;;;;;;;8.07;6.30;;;;;;;1.46;38.26;100143.19;4903025;29;20265;-76
2022/03/14 03:35:08;;;;;;;8.00;6.30;;;;;;;1.44;39.26;100150.47;4902910;29;20227;-75
2022/03/14 03:37:36;;;;;;;6.93;5.33;;;;;;;1.51;39.16;100162.06;4901602;29;20245;-77
2022/03/14 03:40:04;;;;;;;8.43;6.57;;;;;;;1.43;39.62;100152.25;4902473;29;20238;-76
2022/03/14 03:42:31;;;;;;;7.53;6.50;;;;;;;1.46;39.88;100151.13;4906211;29;20660;-76
2022/03/14 03:44:57;;;;;;;8.10;6.30;;;;;;;1.44;40.32;100161.03;4904135;29;20605;-76
2022/03/14 03:47:24;;;;;;;8.33;5.87;;;;;;;1.48;39.93;100160.56;4899839;29;20318;-76
2022/03/14 03:49:51;;;;;;;8.40;6.30;;;;;;;1.51;40.51;100164.72;4906543;29;20320;-76
2022/03/14 03:52:18;;;;;;;7.63;6.00;;;;;;;1.38;41.72;100165.06;4900417;29;20234;-76
2022/03/14 03:54:44;;;;;;;7.70;6.13;;;;;;;1.55;42.77;100171.34;4900715;29;20229;-76
2022/03/14 03:57:12;;;;;;;6.70;5.80;;;;;;;1.65;41.90;100169.50;4903855;29;20234;-77
2022/03/14 03:59:40;;;;;;;7.20;5.73;;;;;;;1.64;42.23;100175.75;4906659;29;20237;-77
2022/03/14 04:02:08;;;;;;;7.40;5.83;;;;;;;1.73;42.33;100180.97;4904025;29;21850;-77
2022/03/14 04:04:37;;;;;;;9.03;5.80;;;;;;;1.65;42.65;100177.41;4904151;29;20230;-76
2022/03/14 04:07:04;;;;;;;7.23;5.93;;;;;;;1.54;43.61;100204.06;4903857;29;20713;-77
2022/03/14 04:09:31;;;;;;;6.73;5.90;;;;;;;1.59;44.36;100199.97;4906894;29;20246;-77
2022/03/14 04:11:58;;;;;;;7.60;5.93;;;;;;;1.64;44.70;100203.00;4906776;29;20277;-76
2022/03/14 04:14:29;;;;;;;7.73;5.90;;;;;;;1.73;44.80;100211.84;4907835;29;20245;-79
2022/03/14 04:16:55;;;;;;;8.50;6.10;;;;;;;1.81;44.81;100213.75;4901074;29;20257;-79
2022/03/14 04:19:22;;;;;;;7.43;6.00;;;;;;;1.71;46.00;100222.56;4903129;29;20325;-78
2022/03/14 04:21:52;;;;;;;6.50;5.73;;;;;;;1.84;47.32;100227.47;4908349;29;20329;-78
2022/03/14 04:24:20;;;;;;;7.47;5.83;;;;;;;2.13;48.09;100224.63;4899914;29;21029;-78
2022/03/14 04:26:47;;;;;;;8.37;5.70;;;;;;;2.13;47.83;100222.00;4903544;29;20702;-79
2022/03/14 04:29:15;;;;;;;6.10;5.50;;;;;;;2.11;47.81;100227.41;4901356;29;21394;-78
2022/03/14 04:31:42;;;;;;;6.47;5.63;;;;;;;1.89;47.46;100222.59;4906508;29;20269;-76
2022/03/14 04:34:09;;;;;;;7.37;5.90;;;;;;;2.04;47.15;100230.84;4904008;29;20261;-78
2022/03/14 04:36:36;;;;;;;10.67;5.87;;;;;;;2.05;47.39;100227.22;4901784;29;20241;-79
2022/03/14 04:39:04;;;;;;;7.43;6.20;;;;;;;1.92;47.65;100232.00;4905942;29;20254;-78
2022/03/14 04:41:36;;;;;;;6.87;5.53;;;;;;;2.05;48.50;100229.84;4904708;29;20234;-79
2022/03/14 04:44:04;;;;;;;9.07;6.13;;;;;;;1.95;48.68;100229.09;4907862;29;20240;-78
2022/03/14 04:46:30;;;;;;;7.53;6.30;;;;;;;2.01;49.37;100231.13;4899807;29;20249;-78
2022/03/14 04:48:58;;;;;;;7.53;5.73;;;;;;;2.08;49.57;100230.38;4903543;29;20724;-79
2022/03/14 04:51:25;;;;;;;7.13;6.13;;;;;;;2.20;50.12;100228.31;4905262;29;20310;-78
2022/03/14 04:53:51;;;;;;;7.13;5.40;;;;;;;2.26;49.12;100232.19;4908116;29;20729;-78
2022/03/14 04:56:18;;;;;;;6.67;5.73;;;;;;;2.23;49.63;100222.75;4899470;29;20233;-79
2022/03/14 04:58:45;;;;;;;9.03;6.00;;;;;;;2.08;49.65;100218.97;4909920;29;20621;-79
2022/03/14 05:01:12;;;;;;;7.10;6.00;;;;;;;2.19;49.27;100232.78;4906278;29;20710;-79
2022/03/14 05:03:39;;;;;;;9.17;6.13;;;;;;;2.17;49.92;100226.00;4909699;29;20230;-78
2022/03/14 05:06:06;;;;;;;7.73;5.83;;;;;;;2.29;49.17;100234.53;4905375;29;20269;-79
2022/03/14 05:08:33;;;;;;;8.20;6.23;;;;;;;2.28;47.34;100231.06;4911703;29;20274;-79
2022/03/14 05:11:00;;;;;;;10.23;6.70;;;;;;;2.09;45.87;100232.03;4910867;29;20256;-79
2022/03/14 05:13:26;;;;;;;10.13;6.37;;;;;;;1.99;46.57;100230.44;4903494;29;20611;-78
2022/03/14 05:15:53;;;;;;;10.43;6.77;;;;;;;1.78;46.96;100231.53;4902356;29;20242;-78
2022/03/14 05:18:20;;;;;;;7.67;6.10;;;;;;;1.80;47.46;100246.44;4908706;29;20234;-79
2022/03/14 05:20:46;;;;;;;8.23;6.17;;;;;;;1.78;48.99;100241.28;4909161;29;20723;-79
2022/03/14 05:23:13;;;;;;;10.07;5.70;;;;;;;1.76;49.56;100246.72;4902226;29;20242;-81
2022/03/14 05:25:40;;;;;;;10.17;6.87;;;;;;;1.85;48.84;100244.19;4908453;29;20299;-79
2022/03/14 05:28:07;;;;;;;7.53;6.43;;;;;;;2.06;48.59;100244.72;4904316;29;20230;-79
2022/03/14 05:30:34;;;;;;;8.27;6.20;;;;;;;1.96;49.10;100254.53;4902276;29;20238;-79
2022/03/14 05:33:01;;;;;;;10.30;6.60;;;;;;;1.88;50.09;100265.00;4910610;29;20234;-80
2022/03/14 05:35:28;;;;;;;8.33;6.60;;;;;;;1.98;49.72;100266.63;4907058;29;20239;-79
2022/03/14 05:37:55;;;;;;;8.93;6.77;;;;;;;1.95;49.50;100280.13;4907184;29;20777;-79
2022/03/14 05:40:22;;;;;;;10.43;6.33;;;;;;;2.00;49.76;100274.41;4904480;29;20238;-79
2022/03/14 05:42:49;;;;;;;9.57;6.77;;;;;;;2.18;48.02;100281.38;4911146;29;20240;-80
2022/03/14 05:45:18;;;;;;;10.17;7.17;;;;;;;2.25;47.38;100276.28;4911297;29;20325;-79
2022/03/14 05:47:44;;;;;;;8.53;7.10;;;;;;;2.13;46.36;100288.91;4908477;29;20329;-80
2022/03/14 05:50:12;;;;;;;8.23;6.93;;;;;;;2.16;44.69;100295.72;4896860;29;20653;-79
2022/03/14 05:52:39;;;;;;;10.03;7.90;;;;;;;2.17;44.96;100305.31;4906833;29;20227;-79
2022/03/14 05:55:06;;;;;;;12.70;8.47;;;;;;;2.10;45.64;100304.25;4909760;29;20293;-79
2022/03/14 05:57:33;;;;;;;11.43;8.10;;;;;;;2.11;44.37;100313.81;4908281;29;20233;-79
2022/03/14 06:00:01;;;;;;;16.13;14.43;;;;;;;2.13;44.12;100325.94;4913660;29;20246;-79
2022/03/14 06:02:28;;;;;;;24.00;21.37;;;;;;;2.22;44.05;100321.56;4902207;29;20267;-79
2022/03/14 06:04:55;;;;;;;32.80;27.50;;;;;;;2.11;44.59;100321.75;4909294;29;20252;-80
2022/03/14 06:07:22;;;;;;;16.10;12.10;;;;;;;2.19;44.32;100325.31;4906992;29;20227;-80
2022/03/14 06:09:50;;;;;;;11.20;8.40;;;;;;;2.47;43.87;100325.28;4904845;29;20290;-78
2022/03/14 06:12:27;;;;;;;11.10;8.00;;;;;;;2.39;44.32;100330.47;4901777;29;20321;-78
2022/03/14 06:14:58;;;;;;;13.97;7.97;;;;;;;2.43;44.17;100321.25;4897894;29;20332;-78
2022/03/14 06:17:31;;;;;;;9.33;7.87;;;;;;;2.51;43.68;100329.28;4899193;29;20720;-79
2022/03/14 06:19:57;;;;;;;11.90;7.57;;;;;;;2.66;43.03;100335.69;4903695;29;20302;-79
2022/03/14 06:22:24;;;;;;;9.77;7.63;;;;;;;2.64;43.17;100338.50;4895476;29;20766;-79
2022/03/14 06:24:51;;;;;;;10.80;7.83;;;;;;;2.70;43.11;100337.06;4901473;29;20225;-78
2022/03/14 06:27:20;;;;;;;11.23;8.80;;;;;;;2.70;43.53;100341.53;4896907;29;20242;-75
2022/03/14 06:29:52;;;;;;;10.57;7.30;;;;;;;2.79;44.16;100341.44;4900333;29;20710;-76
2022/03/14 06:32:19;;;;;;;9.60;8.23;;;;;;;2.97;44.39;100352.84;4902667;29;20274;-75
2022/03/14 06:34:45;;;;;;;10.07;7.30;;;;;;;3.03;44.82;100362.81;4907087;29;20679;-75
2022/03/14 06:37:14;;;;;;;10.47;8.70;;;;;;;3.08;44.86;100365.00;4905768;29;20244;-75
2022/03/14 06:39:40;;;;;;;23.77;13.40;;;;;;;3.07;45.40;100374.78;4904514;29;20266;-75
2022/03/14 06:42:09;;;;;;;16.87;9.20;;;;;;;3.31;45.51;100373.28;4906979;29;20614;-76
2022/03/14 06:44:41;;;;;;;16.40;14.70;;;;;;;3.39;45.80;100376.00;4905921;29;20767;-75
2022/03/14 06:47:10;;;;;;;12.93;8.87;;;;;;;3.59;46.50;100389.88;4907113;29;20702;-75
2022/03/14 06:49:37;;;;;;;17.90;15.07;;;;;;;3.68;46.35;100392.41;4904827;29;20246;-78
2022/03/14 06:52:04;;;;;;;9.70;8.77;;;;;;;3.79;47.29;100400.06;4907043;29;20238;-79
2022/03/14 06:54:32;;;;;;;11.33;7.30;;;;;;;4.20;46.81;100421.50;4904025;29;20246;-75
2022/03/14 06:56:59;;;;;;;7.80;6.60;;;;;;;4.38;47.26;100422.25;4906006;29;20237;-75
2022/03/14 06:59:26;;;;;;;10.30;7.03;;;;;;;4.39;46.73;100426.53;4902566;29;20286;-78
2022/03/14 07:01:52;;;;;;;9.33;7.10;;;;;;;4.46;47.03;100426.72;4905815;29;20289;-79
2022/03/14 07:04:19;;;;;;;8.67;6.93;;;;;;;4.53;46.93;100423.25;4904078;29;20238;-79
2022/03/14 07:06:46;;;;;;;8.17;6.93;;;;;;;4.69;46.79;100436.59;4901855;29;20230;-79
2022/03/14 07:09:13;;;;;;;7.97;7.17;;;;;;;4.74;46.62;100431.63;4895998;29;20248;-79
2022/03/14 07:11:39;;;;;;;8.60;6.87;;;;;;;4.93;45.20;100432.31;4897380;29;20283;-79
2022/03/14 07:14:06;;;;;;;8.87;6.80;;;;;;;4.94;44.89;100436.66;4905627;29;20265;-78
2022/03/14 07:16:33;;;;;;;10.40;7.30;;;;;;;5.13;44.16;100429.16;4903163;29;20291;-79
2022/03/14 07:19:00;;;;;;;8.13;7.30;;;;;;;5.16;44.16;100436.84;4904991;29;20238;-78
2022/03/14 07:21:29;;;;;;;11.03;7.70;;;;;;;5.22;43.33;100430.03;4902281;29;20313;-78
2022/03/14 07:23:57;;;;;;;9.60;7.70;;;;;;;5.44;43.17;100439.16;4907752;29;20725;-78
2022/03/14 07:26:24;;;;;;;9.40;7.17;;;;;;;5.39;42.63;100436.16;4903731;29;20313;-79
2022/03/14 07:28:51;;;;;;;12.97;7.80;;;;;;;5.45;42.55;100441.66;4903220;29;20242;-78
2022/03/14 07:31:18;;;;;;;9.50;7.33;;;;;;;5.58;42.68;100439.31;4902898;29;20311;-79
2022/03/14 07:33:47;;;;;;;9.73;7.50;;;;;;;5.70;43.04;100442.44;4900607;29;20362;-79
2022/03/14 07:36:14;;;;;;;11.53;7.60;;;;;;;5.77;43.25;100446.09;4901946;29;20313;-78
2022/03/14 07:38:41;;;;;;;9.87;8.30;;;;;;;5.92;42.56;100462.25;4904797;29;20242;-79
2022/03/14 07:41:10;;;;;;;8.43;7.33;;;;;;;6.10;41.76;100478.81;4906245;29;20248;-79
2022/03/14 07:43:38;;;;;;;8.83;7.67;;;;;;;6.00;41.83;100478.16;4903783;29;20326;-78
2022/03/14 07:46:05;;;;;;;12.00;9.00;;;;;;;5.97;41.94;100487.31;4906412;29;20238;-78
2022/03/14 07:48:32;;;;;;;10.67;8.60;;;;;;;6.09;41.59;100495.78;4898854;29;20774;-78
2022/03/14 07:50:58;;;;;;;8.47;7.57;;;;;;;6.15;41.18;100495.94;4903603;29;20364;-79
2022/03/14 07:53:25;;;;;;;9.03;7.73;;;;;;;6.16;41.23;100494.91;4898700;29;20266;-79
2022/03/14 07:55:52;;;;;;;9.10;7.97;;;;;;;6.22;40.92;100488.09;4901280;29;20643;-79
2022/03/14 07:58:19;;;;;;;8.83;7.57;;;;;;;6.29;40.81;100491.75;4902661;29;20251;-78
2022/03/14 08:00:45;;;;;;;9.67;7.77;;;;;;;6.31;40.81;100497.72;4897748;29;20246;-77
2022/03/14 08:03:15;;;;;;;8.80;7.90;;;;;;;6.36;40.77;100497.19;4905960;29;20230;-77
2022/03/14 08:05:44;;;;;;;10.63;8.40;;;;;;;6.62;40.20;100497.78;4901020;29;20235;-78
2022/03/14 08:08:10;;;;;;;9.50;7.60;;;;;;;6.56;40.15;100517.94;4905466;29;20331;-77
2022/03/14 08:10:39;;;;;;;16.90;9.30;;;;;;;6.67;40.63;100527.38;4902044;29;20294;-77
2022/03/14 08:13:06;;;;;;;11.73;9.57;;;;;;;6.78;40.30;100518.16;4906891;29;20605;-78
2022/03/14 08:15:38;;;;;;;12.00;8.27;;;;;;;6.89;40.23;100525.78;4901866;29;20234;-77
2022/03/14 08:18:07;;;;;;;12.57;9.87;;;;;;;6.97;39.89;100531.88;4901317;29;20765;-78
2022/03/14 08:20:34;;;;;;;9.67;8.10;;;;;;;7.03;39.24;100536.53;4896407;29;20711;-77
2022/03/14 08:23:03;;;;;;;13.77;9.40;;;;;;;7.09;39.84;100540.34;4903907;29;20230;-77
2022/03/14 08:25:31;;;;;;;11.63;9.33;;;;;;;7.18;39.81;100557.94;4900742;29;20730;-77
2022/03/14 08:27:58;;;;;;;26.63;16.40;;;;;;;7.19;40.20;100564.91;4904506;29;20337;-77
2022/03/14 08:30:25;;;;;;;30.77;19.07;;;;;;;7.37;39.41;100557.47;4899525;29;20230;-77
2022/03/14 08:32:54;;;;;;;17.67;12.10;;;;;;;7.52;38.87;100545.03;4903766;29;20658;-78
2022/03/14 08:35:21;;;;;;;13.10;9.53;;;;;;;7.66;40.37;100563.94;4903189;29;20234;-77
2022/03/14 08:37:50;;;;;;;36.73;21.63;;;;;;;7.83;39.39;100573.50;4905651;29;20265;-78
2022/03/14 08:40:22;;;;;;;16.97;10.40;;;;;;;7.89;39.51;100565.59;4901174;29;20238;-77
2022/03/14 08:42:52;;;;;;;43.17;24.90;;;;;;;8.02;39.54;100561.50;4907383;29;20278;-78
2022/03/14 08:45:19;;;;;;;51.30;30.00;;;;;;;8.06;39.74;100557.47;4904688;29;20229;-77
2022/03/14 08:47:46;;;;;;;11.33;8.13;;;;;;;8.08;39.90;100564.25;4905578;29;20244;-77
2022/03/14 08:50:14;;;;;;;11.20;7.63;;;;;;;8.28;40.06;100573.41;4906445;29;20324;-77
2022/03/14 08:52:43;;;;;;;12.30;9.33;;;;;;;8.34;39.87;100577.25;4905615;29;20797;-78
2022/03/14 08:55:10;;;;;;;8.53;7.60;;;;;;;8.36;39.70;100592.06;4907349;29;20253;-77
2022/03/14 08:57:40;;;;;;;8.27;6.90;;;;;;;8.51;39.73;100596.59;4904841;29;20268;-77
2022/03/14 09:00:08;;;;;;;7.27;6.30;;;;;;;8.61;38.93;100592.63;4902814;29;20249;-78
2022/03/14 09:02:35;;;;;;;7.23;6.50;;;;;;;8.84;39.00;100596.06;4902615;29;20241;-78
2022/03/14 09:05:03;;;;;;;7.97;6.27;;;;;;;8.88;38.97;100599.19;4906778;29;20217;-78
2022/03/14 09:07:30;;;;;;;7.90;6.67;;;;;;;8.87;38.82;100602.84;4901635;29;20247;-78
2022/03/14 09:10:06;;;;;;;8.23;6.97;;;;;;;9.11;38.91;100604.41;4903383;29;20581;-78
2022/03/14 09:12:33;;;;;;;8.73;6.67;;;;;;;9.07;38.52;100601.28;4905751;29;20591;-79
2022/03/14 09:15:01;;;;;;;8.23;6.90;;;;;;;9.21;38.47;100608.47;4906329;29;20303;-78
2022/03/14 09:17:29;;;;;;;7.67;6.53;;;;;;;9.31;38.73;100601.97;4897678;29;20235;-78
2022/03/14 09:19:56;;;;;;;7.80;6.30;;;;;;;9.30;37.83;100595.81;4904026;29;20702;-78
2022/03/14 09:22:23;;;;;;;9.70;6.23;;;;;;;9.42;38.07;100597.00;4905538;29;20242;-78
2022/03/14 09:24:50;;;;;;;6.60;5.60;;;;;;;9.50;37.48;100596.03;4907376;29;20259;-78
2022/03/14 09:27:17;;;;;;;6.90;6.20;;;;;;;9.49;37.51;100591.69;4900051;29;20312;-78
2022/03/14 09:29:43;;;;;;;10.73;6.60;;;;;;;9.60;37.70;100585.84;4898339;29;20330;-78
2022/03/14 09:32:10;;;;;;;7.00;6.30;;;;;;;9.66;37.48;100593.94;4908541;29;20321;-78
2022/03/14 09:34:38;;;;;;;9.23;6.30;;;;;;;9.86;37.97;100585.28;4901992;29;20245;-78
2022/03/14 09:37:05;;;;;;;6.67;6.07;;;;;;;9.92;37.36;100577.31;4906831;29;20254;-78
2022/03/14 09:39:32;;;;;;;6.80;6.10;;;;;;;9.98;37.30;100592.63;4903817;29;20242;-78
2022/03/14 09:42:01;;;;;;;6.63;6.03;;;;;;;10.04;37.05;100589.16;4907862;29;20247;-78
2022/03/14 09:44:29;;;;;;;7.43;5.77;;;;;;;10.11;37.22;100597.25;4894948;29;20245;-77
2022/03/14 09:47:03;;;;;;;7.37;5.90;;;;;;;10.24;36.85;100583.16;4905778;29;20231;-78
2022/03/14 09:49:31;;;;;;;6.33;5.73;;;;;;;10.38;36.67;100601.00;4905320;29;20238;-78
2022/03/14 09:51:59;;;;;;;6.80;5.60;;;;;;;10.46;37.32;100608.88;4905420;29;20230;-78
2022/03/14 09:54:26;;;;;;;8.60;6.13;;;;;;;10.59;36.41;100606.31;4909047;29;20266;-78
2022/03/14 09:56:59;;;;;;;8.60;5.70;;;;;;;10.70;36.25;100610.28;4909213;29;20235;-78
2022/03/14 09:59:25;;;;;;;6.27;5.67;;;;;;;10.79;36.10;100604.56;4909336;29;20372;-78
2022/03/14 10:01:52;;;;;;;6.67;5.50;;;;;;;10.84;36.20;100620.06;4910008;29;20253;-78
2022/03/14 10:04:20;;;;;;;5.93;5.30;;;;;;;10.91;35.72;100615.59;4907581;29;20321;-78
2022/03/14 10:06:47;;;;;;;6.60;5.20;;;;;;;11.08;35.58;100624.94;4903676;29;20720;-78
2022/03/14 10:09:13;;;;;;;10.13;5.70;;;;;;;11.05;35.49;100628.03;4900750;29;20238;-78
2022/03/14 10:11:40;;;;;;;7.10;6.40;;;;;;;11.15;34.72;100623.09;4901303;29;20234;-77
2022/03/14 10:14:11;;;;;;;6.13;5.53;;;;;;;11.22;34.80;100629.34;4908149;29;20258;-78
2022/03/14 10:16:38;;;;;;;7.07;5.53;;;;;;;11.31;34.00;100636.19;4906122;29;20222;-77
2022/03/14 10:19:09;;;;;;;7.47;5.20;;;;;;;11.34;34.65;100638.47;4909139;29;20372;-78
2022/03/14 10:21:42;;;;;;;8.13;5.40;;;;;;;11.46;34.74;100636.88;4902039;29;20310;-77
2022/03/14 10:24:11;;;;;;;6.53;5.80;;;;;;;11.53;33.66;100642.25;4905198;29;20255;-77
2022/03/14 10:26:43;;;;;;;6.30;5.47;;;;;;;11.56;33.81;100649.09;4902742;29;20314;-78
2022/03/14 10:29:12;;;;;;;7.47;5.70;;;;;;;11.63;33.82;100634.66;4904320;29;20285;-78
2022/03/14 10:31:43;;;;;;;6.80;6.20;;;;;;;11.78;33.32;100638.03;4902400;29;20778;-78
2022/03/14 10:34:14;;;;;;;6.43;5.83;;;;;;;11.72;32.98;100633.47;4906609;29;20249;-78
2022/03/14 10:36:55;;;;;;;6.70;6.10;;;;;;;11.77;32.86;100635.53;4903925;29;20238;-77
2022/03/14 10:39:29;;;;;;;6.47;5.87;;;;;;;11.95;33.32;100641.16;4900242;29;20269;-78
2022/03/14 10:42:04;;;;;;;8.63;6.40;;;;;;;12.18;32.82;100644.28;4905271;29;20242;-77
2022/03/14 10:44:45;;;;;;;6.57;5.97;;;;;;;12.31;32.97;100638.13;4904905;29;20239;-78
2022/03/14 10:47:13;;;;;;;7.53;6.07;;;;;;;12.44;32.67;100637.28;4905209;29;20262;-77
2022/03/14 10:49:43;;;;;;;6.87;6.20;;;;;;;12.59;32.63;100637.91;4900314;29;20607;-77
2022/03/14 10:52:13;;;;;;;6.53;5.83;;;;;;;12.73;32.01;100629.63;4900784;29;20241;-77
2022/03/14 10:54:41;;;;;;;6.23;5.60;;;;;;;12.86;31.85;100633.31;4904235;29;20234;-77
2022/03/14 10:57:09;;;;;;;8.03;6.57;;;;;;;13.10;31.19;100624.56;4897990;29;20786;-77
2022/03/14 10:59:39;;;;;;;9.07;6.70;;;;;;;13.30;31.03;100629.91;4904012;29;20268;-77
2022/03/14 11:02:08;;;;;;;7.80;6.80;;;;;;;13.39;30.31;100621.34;4905146;29;20313;-77
2022/03/14 11:04:52;;;;;;;7.93;6.30;;;;;;;13.41;30.44;100626.53;4905535;29;20678;-77
2022/03/14 11:07:21;;;;;;;8.03;6.20;;;;;;;13.60;30.62;100626.44;4902982;29;20589;-77
2022/03/14 11:09:51;;;;;;;6.73;5.97;;;;;;;13.73;30.48;100627.41;4897985;29;20247;-77
2022/03/14 11:12:22;;;;;;;7.10;5.73;;;;;;;13.87;30.13;100635.19;4886340;29;20690;-76
2022/03/14 11:15:00;;;;;;;7.50;5.73;;;;;;;13.74;29.69;100640.66;4889910;29;20278;-78
2022/03/14 11:17:27;;;;;;;8.60;6.20;;;;;;;13.78;29.86;100633.78;4873071;29;20705;-77
2022/03/14 11:19:56;;;;;;;7.13;6.23;;;;;;;13.91;30.08;100636.41;4890953;29;20695;-77
2022/03/14 11:22:26;;;;;;;6.77;5.90;;;;;;;14.04;29.94;100643.59;4902438;29;20230;-77
2022/03/14 11:24:57;;;;;;;7.23;6.53;;;;;;;14.00;29.65;100648.56;4898547;29;20318;-77
2022/03/14 11:27:35;;;;;;;8.40;6.73;;;;;;;14.07;30.22;100654.75;4909474;29;20237;-77
2022/03/14 11:30:11;;;;;;;8.03;6.63;;;;;;;14.24;29.75;100640.75;4895828;29;20305;-77
2022/03/14 11:32:38;;;;;;;7.20;6.50;;;;;;;14.28;29.14;100645.47;4906436;29;20289;-77